Glentana, Montana
Current Conditions -  °F | °C
As of 12:53 AM on Tuesday 27 Jan 2015 (Local Time) from KGGW Reporting Station
Clear Clear  
Wind Chill: 27°   Ceiling: Unl
Heat Index: 34°   Visibility: 10mi
Dew Point: 30°   Wind: 8mph
Humidity: 85%   Direction: 100°E
Pressure: 29.83"   Gusts: NA
Location:  48.85°N, 106.25°W
Report Text: KGGW 270753Z AUTO 10007KT 10SM CLR 01/M01 A2983 RMK AO2 SLP118 T00111011
Loading
Personal Weather Stations






























Interactive Weather Map New forecast layout! Learn more

10-Day Weather Forecast

Advertisements
Track Severe Weather on mobile